createdAt,value
2019-06-08T00:00:16.674Z,1.57
2019-06-08T00:04:40.702Z,1.33
2019-06-08T00:09:06.345Z,1.40
2019-06-08T00:13:30.188Z,1.10
2019-06-08T00:17:55.427Z,1.70
2019-06-08T00:22:19.788Z,1.47
2019-06-08T00:26:43.535Z,1.20
2019-06-08T00:31:07.202Z,1.70
2019-06-08T00:35:30.889Z,1.30
2019-06-08T00:39:55.015Z,1.33
2019-06-08T00:44:19.249Z,1.00
2019-06-08T00:48:44.256Z,1.03
2019-06-08T00:53:08.033Z,1.30
2019-06-08T00:57:31.811Z,1.17
2019-06-08T01:01:55.574Z,1.40
2019-06-08T01:06:19.253Z,1.45
2019-06-08T01:10:43.071Z,1.40
2019-06-08T01:15:07.839Z,1.70
2019-06-08T01:19:32.898Z,1.63
2019-06-08T01:23:58.866Z,1.30
2019-06-08T01:28:23.971Z,1.42
2019-06-08T01:32:48.328Z,1.70
2019-06-08T01:37:12.045Z,1.67
2019-06-08T01:41:35.878Z,1.40
2019-06-08T01:45:59.566Z,1.30
2019-06-08T01:50:24.358Z,1.77
2019-06-08T01:54:48.571Z,1.40
2019-06-08T01:59:12.325Z,1.40
2019-06-08T02:03:36.352Z,1.57
2019-06-08T02:08:01.203Z,1.60
2019-06-08T02:12:24.901Z,1.97
2019-06-08T02:16:48.586Z,2.17
2019-06-08T02:21:12.437Z,2.87
2019-06-08T02:25:36.234Z,2.13
2019-06-08T02:29:59.924Z,1.70
2019-06-08T02:34:23.611Z,1.50
2019-06-08T02:38:47.353Z,1.53
2019-06-08T02:43:11.280Z,1.53
2019-06-08T02:47:36.720Z,1.80
2019-06-08T02:52:01.883Z,1.70
2019-06-08T02:56:27.734Z,1.67
2019-06-08T03:00:54.482Z,1.80
2019-06-08T03:05:19.788Z,1.60
2019-06-08T03:09:46.020Z,1.60
2019-06-08T03:14:09.702Z,2.00
2019-06-08T03:18:35.696Z,1.60
2019-06-08T03:22:59.562Z,1.70
2019-06-08T03:27:23.239Z,1.87
2019-06-08T03:31:54.983Z,1.50
2019-06-08T03:36:12.797Z,1.67
2019-06-08T03:40:38.264Z,1.87
2019-06-08T03:45:01.934Z,1.47
2019-06-08T03:49:41.450Z,1.73
2019-06-08T03:53:54.645Z,2.10
2019-06-08T03:58:18.358Z,2.00
2019-06-08T04:02:42.696Z,1.60
2019-06-08T04:07:07.486Z,1.80
2019-06-08T04:11:31.598Z,1.87
2019-06-08T04:15:55.541Z,1.80
2019-06-08T04:20:19.379Z,1.57
2019-06-08T04:24:46.628Z,1.83
2019-06-08T04:29:10.419Z,1.87
2019-06-08T04:33:34.094Z,1.80
2019-06-08T04:37:57.848Z,1.53
2019-06-08T04:42:22.150Z,1.93
2019-06-08T04:46:47.712Z,1.90
2019-06-08T04:51:11.572Z,1.60
2019-06-08T04:55:35.981Z,1.90
2019-06-08T04:59:59.699Z,1.80
2019-06-08T05:04:23.367Z,1.87
2019-06-08T05:08:47.479Z,1.87
2019-06-08T05:13:11.405Z,1.97
2019-06-08T05:17:35.074Z,1.80
2019-06-08T05:21:58.752Z,2.07
2019-06-08T05:26:22.442Z,1.87
2019-06-08T05:30:47.404Z,2.30
2019-06-08T05:35:11.427Z,2.15
2019-06-08T05:39:35.112Z,1.80
2019-06-08T05:43:58.797Z,2.00
2019-06-08T05:48:22.738Z,1.80
2019-06-08T05:52:46.434Z,1.97
2019-06-08T05:57:10.100Z,2.27
2019-06-08T06:01:33.931Z,1.73
2019-06-08T06:05:57.676Z,2.07
2019-06-08T06:10:21.501Z,1.80
2019-06-08T06:14:45.160Z,2.50
2019-06-08T06:19:09.070Z,2.17
2019-06-08T06:23:33.716Z,2.60
2019-06-08T06:27:57.424Z,1.90
2019-06-08T06:32:21.198Z,2.58
2019-06-08T06:36:45.858Z,1.93
2019-06-08T06:41:10.485Z,1.98
2019-06-08T06:45:34.172Z,2.10
2019-06-08T06:49:57.868Z,2.20
2019-06-08T06:54:21.803Z,2.35
2019-06-08T06:58:45.482Z,2.03
2019-06-08T07:03:09.171Z,2.23
2019-06-08T07:07:33.219Z,2.63
2019-06-08T07:11:56.941Z,2.30
2019-06-08T07:16:20.803Z,2.73
2019-06-08T07:20:44.474Z,2.70
2019-06-08T07:25:08.336Z,2.60
2019-06-08T07:29:31.992Z,2.60
2019-06-08T07:33:55.775Z,3.00
2019-06-08T07:38:19.425Z,2.70
2019-06-08T07:42:43.263Z,2.63
2019-06-08T07:47:06.972Z,2.47
2019-06-08T07:51:30.649Z,2.33
2019-06-08T07:55:56.099Z,2.83
2019-06-08T08:00:20.040Z,2.75
2019-06-08T08:04:43.772Z,2.60
2019-06-08T08:09:08.171Z,3.37
2019-06-08T08:13:31.925Z,2.90
2019-06-08T08:17:55.855Z,2.90
2019-06-08T08:22:26.026Z,2.70
2019-06-08T08:26:45.066Z,2.87
2019-06-08T08:31:11.420Z,3.37
2019-06-08T08:35:34.638Z,2.93
2019-06-08T08:40:00.282Z,3.50
2019-06-08T08:44:23.758Z,3.17
2019-06-08T08:48:50.903Z,2.80
2019-06-08T08:53:14.174Z,2.65
2019-06-08T08:57:41.447Z,3.03
2019-06-08T09:02:03.820Z,3.03
2019-06-08T09:06:28.092Z,2.90
2019-06-08T09:10:53.088Z,3.60
2019-06-08T09:15:19.229Z,3.07
2019-06-08T09:19:43.022Z,3.60
2019-06-08T09:24:07.670Z,3.73
2019-06-08T09:28:31.458Z,3.73
2019-06-08T09:32:57.144Z,4.13
2019-06-08T09:37:20.820Z,4.73
2019-06-08T09:41:44.643Z,2.97
2019-06-08T09:46:09.277Z,3.37
2019-06-08T09:50:33.265Z,5.53
2019-06-08T09:55:01.992Z,2.70
2019-06-08T09:59:22.668Z,3.10
2019-06-08T10:03:48.243Z,2.90
2019-06-08T10:08:11.741Z,3.00
2019-06-08T10:12:37.786Z,3.10
2019-06-08T10:17:03.868Z,3.40
2019-06-08T10:21:28.515Z,2.77
2019-06-08T10:25:52.449Z,2.77
2019-06-08T10:30:16.257Z,2.45
2019-06-08T10:34:39.968Z,2.70
2019-06-08T10:39:07.271Z,3.57
2019-06-08T10:43:30.758Z,3.00
2019-06-08T10:47:54.529Z,3.13
2019-06-08T10:52:20.280Z,2.80
2019-06-08T10:56:43.606Z,3.50
2019-06-08T11:01:12.129Z,3.20
2019-06-08T11:05:32.937Z,2.83
2019-06-08T11:09:58.648Z,2.83
2019-06-08T11:14:22.871Z,3.20
2019-06-08T11:18:50.556Z,2.60
2019-06-08T11:23:12.667Z,2.63
2019-06-08T11:27:38.627Z,3.00
2019-06-08T11:32:02.167Z,2.83
2019-06-08T11:36:28.186Z,3.17
2019-06-08T11:40:51.540Z,2.97
2019-06-08T11:45:17.779Z,2.80
2019-06-08T11:49:41.156Z,3.20
2019-06-08T11:54:19.240Z,2.87
2019-06-08T11:58:31.820Z,3.00
2019-06-08T12:02:57.977Z,2.77
2019-06-08T12:07:21.019Z,3.08
2019-06-08T12:11:44.681Z,3.27
2019-06-08T12:16:14.864Z,3.30
2019-06-08T12:20:33.870Z,2.73
2019-06-08T12:24:57.557Z,2.73
2019-06-08T12:29:21.305Z,3.37
2019-06-08T12:33:44.988Z,2.97
2019-06-08T12:38:09.987Z,3.83
2019-06-08T12:42:34.056Z,3.63
2019-06-08T12:46:58.545Z,3.20
2019-06-08T12:51:22.425Z,3.20
2019-06-08T12:55:47.607Z,3.10
2019-06-08T13:00:13.149Z,3.43
2019-06-08T13:04:38.427Z,3.30
2019-06-08T13:09:02.169Z,3.27
2019-06-08T13:13:28.251Z,3.20
2019-06-08T13:17:52.025Z,3.63
2019-06-08T13:22:16.918Z,3.47
2019-06-08T13:26:41.108Z,3.80
2019-06-08T13:31:07.804Z,3.70
2019-06-08T13:35:30.903Z,3.53
2019-06-08T13:39:54.597Z,3.57
2019-06-08T13:44:18.264Z,3.10
2019-06-08T13:48:41.950Z,2.83
2019-06-08T13:53:05.961Z,2.77
2019-06-08T13:57:29.633Z,2.53
2019-06-08T14:01:53.397Z,2.77
2019-06-08T14:06:18.997Z,2.90
2019-06-08T14:10:43.170Z,2.67
2019-06-08T14:15:08.643Z,3.00
2019-06-08T14:19:33.951Z,2.50
2019-06-08T14:23:58.758Z,5.87
2019-06-08T14:28:23.306Z,3.30
2019-06-08T14:32:48.131Z,2.80
2019-06-08T14:37:11.869Z,2.80
2019-06-08T14:41:35.872Z,2.60
2019-06-08T14:46:00.889Z,2.80
2019-06-08T14:50:27.185Z,2.67
2019-06-08T14:54:51.420Z,3.43
2019-06-08T14:59:18.349Z,2.83
2019-06-08T15:03:41.645Z,3.10
2019-06-08T15:08:08.128Z,2.20
2019-06-08T15:12:31.531Z,2.80
2019-06-08T15:16:55.253Z,2.40
2019-06-08T15:21:21.316Z,2.33
2019-06-08T15:25:44.442Z,2.30
2019-06-08T15:30:08.194Z,3.07
2019-06-08T15:34:33.134Z,2.47
2019-06-08T15:38:58.526Z,2.27
2019-06-08T15:43:22.249Z,1.98
2019-06-08T15:47:48.587Z,1.80
2019-06-08T15:52:11.830Z,2.13
2019-06-08T15:56:47.685Z,1.80
2019-06-08T16:01:02.273Z,1.93
2019-06-08T16:05:27.620Z,2.40
2019-06-08T16:09:52.011Z,2.47
2019-06-08T16:14:15.981Z,2.30
2019-06-08T16:18:39.686Z,2.47
2019-06-08T16:23:03.662Z,2.87
2019-06-08T16:27:27.695Z,2.23
2019-06-08T16:31:51.530Z,2.00
2019-06-08T16:36:16.053Z,2.10
2019-06-08T16:40:40.503Z,2.40
2019-06-08T16:45:04.311Z,2.13
2019-06-08T16:49:29.163Z,1.47
2019-06-08T16:53:53.180Z,1.60
2019-06-08T16:58:17.884Z,1.40
2019-06-08T17:02:41.977Z,1.67
2019-06-08T17:07:05.641Z,1.90
2019-06-08T17:11:29.663Z,1.83
2019-06-08T17:15:54.400Z,1.70
2019-06-08T17:20:18.224Z,2.87
2019-06-08T17:24:41.913Z,2.10
2019-06-08T17:29:05.762Z,2.30
2019-06-08T17:33:29.438Z,2.17
2019-06-08T17:37:53.127Z,2.13
2019-06-08T17:46:47.711Z,2.13
2019-06-08T17:51:11.381Z,1.90
2019-06-08T17:55:35.157Z,2.27
2019-06-08T17:59:58.811Z,1.63
2019-06-08T18:04:22.489Z,2.13
2019-06-08T18:08:48.051Z,1.83
2019-06-08T18:13:11.789Z,2.10
2019-06-08T18:17:38.972Z,2.03
2019-06-08T18:22:05.285Z,2.00
2019-06-08T18:26:27.955Z,2.00
2019-06-08T18:30:51.673Z,2.00
2019-06-08T18:35:15.506Z,2.00
2019-06-08T18:39:42.509Z,1.67
2019-06-08T18:44:08.231Z,2.17
2019-06-08T18:48:30.826Z,1.70
2019-06-08T18:52:54.500Z,2.10
2019-06-08T18:57:18.172Z,1.90
2019-06-08T19:01:43.246Z,2.40
2019-06-08T19:06:10.158Z,2.13
2019-06-08T19:10:33.660Z,2.20
2019-06-08T19:14:58.571Z,2.10
2019-06-08T19:19:22.329Z,2.50
2019-06-08T19:23:49.229Z,2.33
2019-06-08T19:28:12.578Z,1.97
2019-06-08T19:32:38.925Z,2.23
2019-06-08T19:37:01.886Z,2.70
2019-06-08T19:41:28.085Z,2.37
2019-06-08T19:45:52.130Z,2.47
2019-06-08T19:50:17.287Z,2.40
2019-06-08T19:54:43.641Z,2.03
2019-06-08T19:59:08.460Z,2.93
2019-06-08T20:03:31.860Z,2.60
2019-06-08T20:07:57.547Z,2.43
2019-06-08T20:12:20.945Z,2.80
2019-06-08T20:16:48.083Z,2.70
2019-06-08T20:21:10.965Z,2.70
2019-06-08T20:25:34.862Z,3.20
2019-06-08T20:29:58.777Z,3.00
2019-06-08T20:34:22.441Z,2.73
2019-06-08T20:38:47.434Z,5.90
2019-06-08T20:43:11.183Z,3.90
2019-06-08T20:47:36.750Z,3.20
2019-06-08T20:52:00.622Z,3.90
2019-06-08T20:56:24.540Z,3.43
2019-06-08T21:00:49.758Z,3.73
2019-06-08T21:05:14.082Z,3.58
2019-06-08T21:09:38.070Z,2.73
2019-06-08T21:14:01.805Z,2.90
2019-06-08T21:18:27.594Z,2.60
2019-06-08T21:22:53.408Z,2.70
2019-06-08T21:27:17.396Z,2.63
2019-06-08T21:31:41.052Z,2.80
2019-06-08T21:36:08.482Z,3.03
2019-06-08T21:40:30.233Z,2.70
2019-06-08T21:44:55.972Z,2.43
2019-06-08T21:49:19.521Z,2.75
2019-06-08T21:53:43.279Z,2.40
2019-06-08T21:58:08.018Z,2.70
2019-06-08T22:02:31.821Z,3.13
2019-06-08T22:06:58.599Z,2.37
2019-06-08T22:11:22.259Z,2.33
2019-06-08T22:15:47.425Z,2.40
2019-06-08T22:20:11.369Z,2.57
2019-06-08T22:24:35.042Z,2.20
2019-06-08T22:29:01.008Z,2.50
2019-06-08T22:33:24.091Z,2.50
2019-06-08T22:37:48.086Z,2.60
2019-06-08T22:42:12.821Z,2.90
2019-06-08T22:46:37.517Z,2.67
2019-06-08T22:51:03.135Z,2.90
2019-06-08T22:55:27.889Z,2.90
2019-06-08T22:59:54.297Z,2.90
2019-06-08T23:04:18.390Z,3.10
2019-06-08T23:08:42.300Z,3.27
2019-06-08T23:13:08.291Z,3.30
2019-06-08T23:17:31.342Z,3.10
2019-06-08T23:21:55.285Z,3.30
2019-06-08T23:26:18.965Z,2.97
2019-06-08T23:30:42.707Z,3.17
2019-06-08T23:35:07.900Z,3.60
2019-06-08T23:39:32.039Z,3.40
2019-06-08T23:43:55.866Z,3.10
2019-06-08T23:48:19.558Z,3.40
2019-06-08T23:52:43.243Z,2.97
2019-06-08T23:57:09.628Z,4.63
